createdAt,value
2018-07-04T00:00:45.378Z,19.50
2018-07-04T00:03:24.025Z,19.50
2018-07-04T00:06:02.820Z,19.50
2018-07-04T00:08:41.506Z,19.50
2018-07-04T00:11:20.243Z,19.40
2018-07-04T00:13:58.878Z,19.20
2018-07-04T00:16:37.914Z,19.10
2018-07-04T00:19:16.549Z,18.90
2018-07-04T00:21:55.234Z,18.80
2018-07-04T00:24:33.863Z,18.80
2018-07-04T00:27:12.631Z,18.80
2018-07-04T00:29:51.511Z,18.80
2018-07-04T00:32:30.171Z,18.80
2018-07-04T00:35:08.838Z,18.80
2018-07-04T00:37:47.547Z,18.80
2018-07-04T00:40:26.401Z,18.80
2018-07-04T00:43:05.085Z,18.70
2018-07-04T00:45:43.742Z,18.70
2018-07-04T00:48:22.472Z,18.80
2018-07-04T00:51:01.420Z,18.80
2018-07-04T00:53:40.398Z,18.80
2018-07-04T00:56:19.271Z,18.80
2018-07-04T00:58:57.971Z,18.80
2018-07-04T01:01:36.710Z,18.80
2018-07-04T01:04:15.467Z,18.90
2018-07-04T01:06:54.439Z,18.90
2018-07-04T01:09:33.112Z,18.90
2018-07-04T01:12:11.784Z,18.90
2018-07-04T01:14:50.904Z,18.80
2018-07-04T01:17:29.807Z,18.80
2018-07-04T01:20:08.509Z,18.80
2018-07-04T01:22:47.237Z,18.70
2018-07-04T01:25:26.169Z,18.60
2018-07-04T01:28:05.059Z,18.50
2018-07-04T01:30:43.765Z,18.60
2018-07-04T01:33:22.736Z,18.50
2018-07-04T01:36:01.760Z,18.50
2018-07-04T01:38:40.446Z,18.60
2018-07-04T01:41:19.227Z,18.60
2018-07-04T01:43:57.998Z,18.60
2018-07-04T01:46:36.580Z,18.70
2018-07-04T01:49:15.373Z,18.70
2018-07-04T01:51:54.027Z,18.80
2018-07-04T01:54:32.887Z,18.90
2018-07-04T01:57:11.558Z,19.00
2018-07-04T01:59:50.466Z,19.10
2018-07-04T02:02:29.344Z,19.10
2018-07-04T02:05:08.096Z,19.20
2018-07-04T02:07:46.951Z,19.20
2018-07-04T02:10:25.863Z,19.20
2018-07-04T02:13:04.561Z,19.20
2018-07-04T02:15:43.312Z,19.20
2018-07-04T02:18:21.982Z,19.20
2018-07-04T02:21:00.739Z,19.20
2018-07-04T02:23:39.513Z,19.10
2018-07-04T02:26:18.670Z,19.00
2018-07-04T02:28:57.311Z,18.90
2018-07-04T02:31:35.929Z,18.80
2018-07-04T02:34:14.618Z,18.70
2018-07-04T02:36:53.339Z,18.60
2018-07-04T02:39:32.191Z,18.70
2018-07-04T02:42:11.002Z,18.60
2018-07-04T02:44:49.650Z,18.70
2018-07-04T02:47:28.662Z,18.50
2018-07-04T02:50:08.232Z,18.30
2018-07-04T02:52:47.731Z,18.10
2018-07-04T02:55:26.360Z,18.10
2018-07-04T02:58:06.250Z,18.10
2018-07-04T03:00:45.098Z,18.00
2018-07-04T03:03:23.903Z,18.00
2018-07-04T03:06:03.618Z,18.00
2018-07-04T03:08:42.322Z,18.00
2018-07-04T03:11:21.114Z,17.90
2018-07-04T03:14:00.300Z,17.80
2018-07-04T03:16:39.190Z,17.80
2018-07-04T03:19:18.099Z,17.80
2018-07-04T03:21:56.839Z,17.70
2018-07-04T03:24:35.575Z,17.70
2018-07-04T03:27:14.274Z,17.70
2018-07-04T03:29:53.525Z,17.70
2018-07-04T03:32:32.259Z,17.70
2018-07-04T03:35:11.118Z,17.70
2018-07-04T03:40:22.737Z,17.70
2018-07-04T03:43:01.416Z,17.80
2018-07-04T03:45:40.097Z,17.80
2018-07-04T03:48:18.921Z,17.80
2018-07-04T03:50:57.678Z,17.80
2018-07-04T03:53:36.362Z,17.90
2018-07-04T03:56:15.239Z,18.10
2018-07-04T03:58:53.985Z,18.10
2018-07-04T04:01:32.696Z,18.10
2018-07-04T04:04:11.460Z,18.10
2018-07-04T04:06:50.303Z,18.20
2018-07-04T04:09:29.273Z,18.40
2018-07-04T04:12:08.166Z,18.60
2018-07-04T04:14:47.086Z,18.40
2018-07-04T04:17:26.254Z,18.50
2018-07-04T04:20:04.979Z,18.50
2018-07-04T04:22:43.678Z,18.60
2018-07-04T04:25:22.449Z,18.80
2018-07-04T04:28:01.709Z,18.90
2018-07-04T04:30:40.478Z,18.90
2018-07-04T04:33:19.276Z,19.00
2018-07-04T04:35:57.988Z,18.80
2018-07-04T04:38:36.731Z,18.90
2018-07-04T04:41:15.414Z,18.80
2018-07-04T04:46:27.047Z,18.80
2018-07-04T04:49:05.941Z,19.00
2018-07-04T04:51:44.610Z,19.30
2018-07-04T04:54:23.430Z,19.50
2018-07-04T04:57:02.302Z,19.70
2018-07-04T04:59:41.130Z,19.90
2018-07-04T05:02:19.795Z,20.10
2018-07-04T05:04:58.718Z,20.40
2018-07-04T05:07:37.402Z,20.60
2018-07-04T05:10:16.171Z,20.90
2018-07-04T05:12:54.855Z,21.00
2018-07-04T05:15:33.951Z,21.10
2018-07-04T05:18:12.615Z,21.20
2018-07-04T05:20:51.353Z,20.70
2018-07-04T05:23:30.147Z,20.50
2018-07-04T05:26:09.287Z,20.50
2018-07-04T05:28:47.960Z,20.60
2018-07-04T05:31:26.959Z,20.70
2018-07-04T05:34:05.734Z,20.70
2018-07-04T05:36:44.404Z,21.10
2018-07-04T05:39:23.090Z,21.40
2018-07-04T05:42:01.734Z,22.40
2018-07-04T05:47:13.471Z,24.80
2018-07-04T05:49:52.174Z,25.50
2018-07-04T05:52:31.155Z,25.60
2018-07-04T05:55:09.834Z,26.20
2018-07-04T05:57:48.679Z,26.80
2018-07-04T06:00:27.455Z,27.00
2018-07-04T06:03:06.350Z,27.40
2018-07-04T06:05:45.035Z,28.70
2018-07-04T06:08:23.798Z,29.20
2018-07-04T06:11:02.439Z,30.50
2018-07-04T06:13:41.930Z,31.10
2018-07-04T06:16:20.686Z,32.30
2018-07-04T06:18:59.411Z,32.70
2018-07-04T06:21:38.016Z,34.80
2018-07-04T06:24:16.820Z,35.00
2018-07-04T06:26:55.447Z,36.40
2018-07-04T06:29:34.274Z,36.50
2018-07-04T06:32:12.919Z,36.50
2018-07-04T06:34:51.994Z,37.10
2018-07-04T06:37:30.802Z,37.20
2018-07-04T06:39:57.219Z,38.70
2018-07-04T06:42:23.455Z,39.00
2018-07-04T06:44:49.680Z,38.70
2018-07-04T06:47:15.905Z,38.50
2018-07-04T06:49:42.152Z,39.90
2018-07-04T06:52:08.372Z,40.90
2018-07-04T06:54:34.624Z,42.20
2018-07-04T06:57:00.886Z,41.70
2018-07-04T06:59:27.110Z,40.30
2018-07-04T07:01:53.384Z,40.10
2018-07-04T07:04:32.058Z,39.70
2018-07-04T07:07:10.764Z,39.70
2018-07-04T07:09:49.550Z,39.30
2018-07-04T07:12:28.154Z,40.10
2018-07-04T07:15:07.457Z,40.60
2018-07-04T07:17:46.117Z,40.90
2018-07-04T07:20:24.854Z,41.00
2018-07-04T07:23:03.639Z,40.10
2018-07-04T07:25:42.274Z,39.30
2018-07-04T07:28:21.039Z,38.80
2018-07-04T07:33:32.896Z,38.70
2018-07-04T07:36:12.019Z,39.50
2018-07-04T07:38:50.901Z,39.80
2018-07-04T07:41:29.898Z,39.30
2018-07-04T07:44:08.546Z,39.20
2018-07-04T07:46:47.464Z,38.80
2018-07-04T07:49:26.374Z,39.10
2018-07-04T07:52:05.170Z,39.40
2018-07-04T07:54:43.822Z,40.00
2018-07-04T07:57:22.475Z,40.60
2018-07-04T08:00:01.094Z,41.30
2018-07-04T08:02:39.982Z,41.80
2018-07-04T08:05:18.832Z,42.90
2018-07-04T08:07:57.500Z,43.00
2018-07-04T08:10:36.022Z,43.30
2018-07-04T08:13:14.848Z,43.70
2018-07-04T08:15:53.728Z,42.80
2018-07-04T08:18:32.719Z,43.30
2018-07-04T08:21:11.346Z,44.00
2018-07-04T08:23:50.130Z,44.20
2018-07-04T08:26:29.304Z,45.50
2018-07-04T08:29:08.547Z,46.20
2018-07-04T08:31:47.264Z,46.30
2018-07-04T08:34:26.214Z,46.60
2018-07-04T08:37:04.928Z,46.10
2018-07-04T08:39:43.618Z,46.40
2018-07-04T08:42:22.290Z,47.20
2018-07-04T08:45:01.175Z,46.60
2018-07-04T08:47:40.031Z,46.30
2018-07-04T08:50:18.894Z,46.70
2018-07-04T08:52:57.623Z,47.00
2018-07-04T08:55:36.402Z,46.70
2018-07-04T08:58:15.239Z,47.10
2018-07-04T09:00:54.510Z,46.70
2018-07-04T09:03:33.387Z,45.80
2018-07-04T09:06:12.586Z,45.90
2018-07-04T09:08:51.391Z,44.90
2018-07-04T09:11:30.185Z,43.10
2018-07-04T09:14:08.826Z,41.60
2018-07-04T09:16:47.515Z,41.60
2018-07-04T09:19:26.300Z,40.50
2018-07-04T09:24:37.827Z,40.10
2018-07-04T09:27:16.472Z,39.90
2018-07-04T09:29:55.207Z,39.80
2018-07-04T09:32:33.948Z,40.30
2018-07-04T09:35:12.495Z,40.00
2018-07-04T09:37:51.579Z,39.60
2018-07-04T09:40:30.322Z,38.50
2018-07-04T09:43:09.179Z,37.90
2018-07-04T09:45:47.834Z,38.20
2018-07-04T09:50:59.882Z,37.50
2018-07-04T09:53:38.651Z,37.70
2018-07-04T09:56:17.527Z,37.40
2018-07-04T09:58:56.413Z,37.30
2018-07-04T10:01:35.368Z,37.30
2018-07-04T10:06:59.414Z,36.60
2018-07-04T10:09:38.128Z,36.10
2018-07-04T10:12:16.867Z,35.70
2018-07-04T10:14:55.876Z,35.20
2018-07-04T10:17:34.569Z,34.70
2018-07-04T10:20:13.359Z,34.30
2018-07-04T10:22:52.129Z,33.60
2018-07-04T10:25:31.119Z,33.10
2018-07-04T10:28:09.851Z,32.80
2018-07-04T10:30:48.750Z,32.50
2018-07-04T10:33:27.422Z,32.30
2018-07-04T10:36:06.177Z,32.40
2018-07-04T10:38:45.130Z,32.20
2018-07-04T10:41:23.872Z,32.60
2018-07-04T10:44:02.559Z,32.80
2018-07-04T10:46:41.421Z,33.50
2018-07-04T10:49:20.210Z,34.10
2018-07-04T10:51:59.175Z,34.20
2018-07-04T10:54:38.262Z,34.60
2018-07-04T10:57:16.998Z,34.10
2018-07-04T10:59:55.697Z,34.10
2018-07-04T11:02:34.837Z,34.20
2018-07-04T11:05:13.817Z,34.60
2018-07-04T11:07:52.715Z,34.80
2018-07-04T11:10:31.479Z,34.90
2018-07-04T11:13:10.564Z,35.00
2018-07-04T11:15:49.257Z,35.00
2018-07-04T11:18:28.006Z,35.00
2018-07-04T11:21:06.749Z,34.90
2018-07-04T11:23:45.437Z,34.90
2018-07-04T11:26:24.127Z,35.10
2018-07-04T11:29:02.874Z,35.00
2018-07-04T11:31:41.578Z,34.60
2018-07-04T11:34:21.022Z,34.40
2018-07-04T11:36:59.926Z,34.20
2018-07-04T11:39:38.765Z,33.80
2018-07-04T11:42:17.515Z,33.40
2018-07-04T11:44:56.202Z,33.00
2018-07-04T11:47:22.422Z,32.90
2018-07-04T11:49:48.644Z,32.90
2018-07-04T11:52:14.857Z,33.10
2018-07-04T11:54:41.062Z,33.40
2018-07-04T11:57:07.298Z,33.60
2018-07-04T11:59:33.538Z,34.00
2018-07-04T12:01:59.814Z,34.20
2018-07-04T12:04:38.738Z,34.20
2018-07-04T12:07:09.255Z,34.30
2018-07-04T12:09:39.290Z,34.10
2018-07-04T12:12:05.564Z,34.00
2018-07-04T12:14:32.403Z,34.30
2018-07-04T12:16:59.175Z,34.30
2018-07-04T12:19:25.683Z,34.30
2018-07-04T12:21:51.931Z,33.70
2018-07-04T12:24:18.159Z,33.70
2018-07-04T12:26:44.531Z,33.20
2018-07-04T12:29:10.954Z,32.70
2018-07-04T12:31:37.509Z,32.50
2018-07-04T12:34:03.777Z,32.20
2018-07-04T12:36:30.042Z,32.10
2018-07-04T12:38:56.274Z,31.90
2018-07-04T12:41:22.505Z,31.90
2018-07-04T12:43:48.829Z,32.00
2018-07-04T12:46:15.026Z,32.20
2018-07-04T12:48:41.251Z,32.20
2018-07-04T12:51:07.522Z,32.00
2018-07-04T12:53:33.753Z,31.90
2018-07-04T12:56:12.494Z,31.60
2018-07-04T12:58:51.221Z,31.50
2018-07-04T13:01:29.996Z,31.40
2018-07-04T13:04:08.690Z,31.40
2018-07-04T13:06:48.121Z,31.40
2018-07-04T13:09:27.094Z,31.50
2018-07-04T13:12:06.087Z,31.40
2018-07-04T13:14:45.087Z,31.50
2018-07-04T13:17:24.042Z,31.60
2018-07-04T13:20:02.941Z,31.60
2018-07-04T13:22:41.740Z,31.50
2018-07-04T13:25:20.431Z,31.50
2018-07-04T13:27:59.328Z,31.50
2018-07-04T13:30:37.995Z,31.50
2018-07-04T13:33:16.726Z,31.30
2018-07-04T13:35:55.538Z,31.10
2018-07-04T13:38:34.353Z,31.00
2018-07-04T13:41:13.031Z,30.90
2018-07-04T13:43:51.839Z,30.60
2018-07-04T13:46:30.499Z,30.40
2018-07-04T13:49:09.424Z,30.20
2018-07-04T13:51:48.349Z,30.00
2018-07-04T13:54:27.067Z,29.70
2018-07-04T13:57:05.735Z,29.00
2018-07-04T13:59:44.470Z,28.30
2018-07-04T14:02:23.102Z,28.10
2018-07-04T14:05:01.833Z,28.20
2018-07-04T14:07:40.682Z,28.60
2018-07-04T14:10:19.496Z,29.00
2018-07-04T14:12:58.089Z,29.30
2018-07-04T14:15:36.847Z,29.60
2018-07-04T14:18:15.616Z,29.90
2018-07-04T14:20:54.446Z,30.10
2018-07-04T14:23:33.115Z,30.30
2018-07-04T14:26:11.738Z,30.40
2018-07-04T14:28:50.464Z,30.60
2018-07-04T14:31:29.080Z,30.80
2018-07-04T14:34:07.862Z,30.80
2018-07-04T14:36:46.749Z,31.10
2018-07-04T14:39:25.542Z,31.00
2018-07-04T14:42:04.402Z,31.20
2018-07-04T14:44:43.081Z,31.20
2018-07-04T14:47:21.898Z,31.10
2018-07-04T14:50:00.702Z,30.80
2018-07-04T14:52:39.438Z,30.70
2018-07-04T14:55:18.234Z,30.80
2018-07-04T14:57:57.086Z,30.90
2018-07-04T15:03:08.664Z,31.20
2018-07-04T15:05:47.425Z,31.40
2018-07-04T15:08:26.104Z,31.40
2018-07-04T15:11:04.769Z,31.60
2018-07-04T15:13:43.310Z,31.70
2018-07-04T15:16:22.021Z,31.70
2018-07-04T15:19:00.894Z,31.60
2018-07-04T15:21:39.799Z,31.70
2018-07-04T15:24:18.630Z,31.50
2018-07-04T15:26:57.345Z,31.60
2018-07-04T15:29:36.095Z,31.50
2018-07-04T15:32:14.953Z,31.50
2018-07-04T15:34:53.757Z,31.40
2018-07-04T15:37:32.574Z,31.10
2018-07-04T15:40:11.433Z,31.00
2018-07-04T15:42:50.174Z,30.80
2018-07-04T15:45:28.911Z,30.60
2018-07-04T15:48:07.643Z,30.50
2018-07-04T15:50:47.043Z,30.40
2018-07-04T15:53:25.783Z,30.20
2018-07-04T15:56:04.615Z,30.00
2018-07-04T15:58:43.298Z,30.00
2018-07-04T16:01:22.178Z,29.90
2018-07-04T16:04:00.879Z,29.70
2018-07-04T16:06:39.591Z,29.60
2018-07-04T16:11:51.312Z,29.50
2018-07-04T16:14:30.307Z,29.50
2018-07-04T16:17:09.174Z,29.40
2018-07-04T16:19:47.806Z,28.90
2018-07-04T16:22:26.511Z,29.00
2018-07-04T16:25:05.101Z,29.00
2018-07-04T16:30:16.711Z,29.00
2018-07-04T16:32:55.539Z,29.00
2018-07-04T16:35:34.130Z,28.80
2018-07-04T16:38:12.700Z,28.70
2018-07-04T16:40:51.470Z,28.50
2018-07-04T16:46:03.066Z,28.10
2018-07-04T16:48:41.786Z,28.00
2018-07-04T16:51:20.521Z,27.90
2018-07-04T16:53:59.312Z,27.90
2018-07-04T16:56:38.136Z,27.80
2018-07-04T16:59:17.161Z,27.50
2018-07-04T17:01:55.984Z,27.10
2018-07-04T17:04:34.923Z,26.60
2018-07-04T17:07:13.678Z,26.50
2018-07-04T17:09:52.392Z,26.50
2018-07-04T17:12:31.115Z,26.70
2018-07-04T17:15:09.839Z,26.90
2018-07-04T17:17:48.603Z,26.90
2018-07-04T17:20:27.540Z,26.70
2018-07-04T17:23:06.286Z,26.40
2018-07-04T17:25:45.085Z,26.30
2018-07-04T17:28:24.359Z,26.30
2018-07-04T17:31:03.176Z,26.30
2018-07-04T17:33:41.723Z,26.50
2018-07-04T17:36:20.541Z,26.40
2018-07-04T17:38:59.350Z,26.40
2018-07-04T17:46:45.711Z,26.60
2018-07-04T17:49:24.367Z,26.60
2018-07-04T17:52:03.025Z,26.70
2018-07-04T17:54:41.743Z,26.70
2018-07-04T17:57:20.451Z,26.70
2018-07-04T17:59:59.034Z,26.80
2018-07-04T18:02:37.918Z,26.80
2018-07-04T18:05:16.802Z,26.90
2018-07-04T18:07:55.390Z,26.80
2018-07-04T18:10:34.468Z,26.80
2018-07-04T18:13:13.350Z,26.70
2018-07-04T18:15:52.023Z,26.60
2018-07-04T18:18:30.878Z,26.50
2018-07-04T18:21:15.613Z,26.30
2018-07-04T18:23:54.298Z,26.10
2018-07-04T18:26:33.006Z,25.80
2018-07-04T18:34:17.549Z,25.10
2018-07-04T18:39:29.141Z,25.10
2018-07-04T18:42:07.995Z,24.90
2018-07-04T18:44:46.659Z,24.70
2018-07-04T18:47:25.397Z,24.40
2018-07-04T18:50:04.105Z,24.40
2018-07-04T18:52:42.922Z,24.40
2018-07-04T18:55:21.642Z,24.20
2018-07-04T18:58:00.515Z,24.20
2018-07-04T19:00:39.307Z,24.10
2018-07-04T19:03:18.189Z,24.20
2018-07-04T19:05:57.063Z,24.20
2018-07-04T19:08:35.994Z,24.20
2018-07-04T19:11:14.741Z,24.10
2018-07-04T19:13:53.547Z,24.00
2018-07-04T19:16:32.343Z,24.00
2018-07-04T19:19:11.008Z,23.90
2018-07-04T19:21:49.744Z,23.90
2018-07-04T19:24:28.541Z,23.80
2018-07-04T19:27:07.119Z,23.70
2018-07-04T19:29:45.892Z,23.70
2018-07-04T19:32:24.618Z,23.60
2018-07-04T19:35:03.567Z,23.50
2018-07-04T19:37:42.218Z,23.60
2018-07-04T19:40:21.028Z,23.60
2018-07-04T19:42:59.881Z,23.80
2018-07-04T19:45:38.577Z,23.80
2018-07-04T19:50:50.253Z,23.70
2018-07-04T19:53:29.114Z,23.80
2018-07-04T19:56:07.938Z,23.70
2018-07-04T19:58:46.633Z,23.60
2018-07-04T20:01:25.257Z,23.40
2018-07-04T20:04:03.918Z,23.20
2018-07-04T20:06:42.651Z,23.10
2018-07-04T20:09:21.408Z,23.00
2018-07-04T20:12:00.378Z,23.00
2018-07-04T20:14:39.099Z,23.10
2018-07-04T20:17:17.844Z,22.90
2018-07-04T20:19:56.421Z,22.60
2018-07-04T20:22:35.154Z,22.50
2018-07-04T20:27:46.915Z,22.30
2018-07-04T20:30:25.753Z,22.10
2018-07-04T20:33:04.394Z,22.10
2018-07-04T20:35:43.243Z,22.00
2018-07-04T20:38:22.051Z,22.10
2018-07-04T20:41:00.778Z,22.00
2018-07-04T20:43:39.546Z,22.00
2018-07-04T20:46:18.274Z,21.90
2018-07-04T20:48:56.942Z,21.90
2018-07-04T20:51:35.739Z,21.90
2018-07-04T20:54:14.384Z,21.80
2018-07-04T20:56:53.151Z,21.60
2018-07-04T20:59:31.955Z,21.40
2018-07-04T21:02:10.712Z,21.30
2018-07-04T21:04:49.302Z,21.20
2018-07-04T21:07:27.953Z,21.20
2018-07-04T21:10:06.812Z,21.00
2018-07-04T21:12:45.553Z,20.80
2018-07-04T21:15:24.366Z,20.60
2018-07-04T21:18:03.122Z,20.40
2018-07-04T21:20:41.858Z,20.30
2018-07-04T21:23:20.443Z,20.20
2018-07-04T21:25:59.345Z,20.30
2018-07-04T21:28:38.229Z,20.40
2018-07-04T21:31:17.120Z,20.40
2018-07-04T21:33:55.879Z,20.40
2018-07-04T21:39:07.437Z,20.30
2018-07-04T21:41:46.157Z,20.30
2018-07-04T21:44:24.796Z,20.30
2018-07-04T21:47:04.111Z,20.30
2018-07-04T21:49:43.138Z,20.10
2018-07-04T21:52:22.187Z,19.90
2018-07-04T21:55:00.917Z,20.00
2018-07-04T21:57:39.633Z,19.90
2018-07-04T22:00:21.378Z,19.80
2018-07-04T22:03:00.249Z,19.70
2018-07-04T22:05:39.066Z,19.50
2018-07-04T22:08:17.989Z,19.50
2018-07-04T22:10:56.882Z,19.40
2018-07-04T22:13:35.759Z,19.40
2018-07-04T22:16:14.560Z,19.30
2018-07-04T22:18:53.524Z,19.30
2018-07-04T22:21:32.450Z,19.30
2018-07-04T22:24:11.615Z,19.20
2018-07-04T22:26:50.301Z,19.10
2018-07-04T22:29:29.011Z,18.90
2018-07-04T22:32:07.674Z,19.00
2018-07-04T22:34:46.490Z,19.00
2018-07-04T22:37:25.380Z,19.10
2018-07-04T22:40:04.294Z,19.20
2018-07-04T22:42:43.068Z,19.20
2018-07-04T22:45:22.143Z,19.30
2018-07-04T22:48:00.884Z,19.30
2018-07-04T22:50:39.588Z,19.40
2018-07-04T22:53:18.274Z,19.40
2018-07-04T22:55:56.981Z,19.30
2018-07-04T22:58:35.701Z,19.10
2018-07-04T23:01:14.434Z,18.80
2018-07-04T23:03:53.090Z,18.70
2018-07-04T23:06:32.120Z,18.60
2018-07-04T23:09:10.932Z,18.70
2018-07-04T23:11:49.758Z,18.70
2018-07-04T23:14:28.591Z,18.70
2018-07-04T23:17:07.554Z,18.60
2018-07-04T23:19:46.324Z,18.60
2018-07-04T23:22:25.110Z,18.60
2018-07-04T23:25:04.190Z,18.60
2018-07-04T23:27:42.999Z,18.60
2018-07-04T23:30:21.731Z,18.70
2018-07-04T23:33:00.476Z,18.60
2018-07-04T23:35:39.066Z,18.60
2018-07-04T23:38:17.954Z,18.70
2018-07-04T23:40:56.805Z,18.60
2018-07-04T23:43:36.514Z,18.50
2018-07-04T23:46:15.226Z,18.50
2018-07-04T23:48:53.960Z,18.30
2018-07-04T23:51:32.715Z,18.10
2018-07-04T23:54:11.602Z,18.10
2018-07-04T23:56:51.099Z,18.10
2018-07-04T23:59:30.243Z,18.10
